sensor_id;sensor_type;location;lat;lon;timestamp;temperature;humidity
4874;DHT22;2451;49.970;9.068;2023-04-03T00:01:04;5.00;99.90
4874;DHT22;2451;49.970;9.068;2023-04-03T00:03:30;5.00;99.90
4874;DHT22;2451;49.970;9.068;2023-04-03T00:05:56;5.00;99.90
4874;DHT22;2451;49.970;9.068;2023-04-03T00:08:21;4.90;99.90
4874;DHT22;2451;49.970;9.068;2023-04-03T00:10:47;4.90;99.90
4874;DHT22;2451;49.970;9.068;2023-04-03T00:13:13;4.90;99.90
4874;DHT22;2451;49.970;9.068;2023-04-03T00:15:40;4.80;99.90
4874;DHT22;2451;49.970;9.068;2023-04-03T00:18:06;4.80;99.90
4874;DHT22;2451;49.970;9.068;2023-04-03T00:20:32;4.80;99.90
4874;DHT22;2451;49.970;9.068;2023-04-03T00:22:58;4.80;99.90
4874;DHT22;2451;49.970;9.068;2023-04-03T00:25:24;4.70;99.90
4874;DHT22;2451;49.970;9.068;2023-04-03T00:27:50;4.70;99.90
4874;DHT22;2451;49.970;9.068;2023-04-03T00:30:18;4.70;99.90
4874;DHT22;2451;49.970;9.068;2023-04-03T00:32:43;4.70;99.90
4874;DHT22;2451;49.970;9.068;2023-04-03T00:35:09;4.70;99.90
4874;DHT22;2451;49.970;9.068;2023-04-03T00:37:35;4.70;99.90
4874;DHT22;2451;49.970;9.068;2023-04-03T00:40:02;4.60;99.90
4874;DHT22;2451;49.970;9.068;2023-04-03T00:42:28;4.60;99.90
4874;DHT22;2451;49.970;9.068;2023-04-03T00:47:23;4.60;99.90
4874;DHT22;2451;49.970;9.068;2023-04-03T00:49:49;4.50;99.90
4874;DHT22;2451;49.970;9.068;2023-04-03T00:52:18;4.50;99.90
4874;DHT22;2451;49.970;9.068;2023-04-03T00:54:47;4.50;99.90
4874;DHT22;2451;49.970;9.068;2023-04-03T00:57:15;4.50;99.90
4874;DHT22;2451;49.970;9.068;2023-04-03T00:59:54;4.50;99.90
4874;DHT22;2451;49.970;9.068;2023-04-03T01:02:20;4.50;99.90
4874;DHT22;2451;49.970;9.068;2023-04-03T01:04:46;4.50;99.90
4874;DHT22;2451;49.970;9.068;2023-04-03T01:07:16;4.50;99.90
4874;DHT22;2451;49.970;9.068;2023-04-03T01:09:45;4.50;99.90
4874;DHT22;2451;49.970;9.068;2023-04-03T01:12:20;4.50;99.90
4874;DHT22;2451;49.970;9.068;2023-04-03T01:14:52;4.50;99.90
4874;DHT22;2451;49.970;9.068;2023-04-03T01:23:25;4.50;99.90
4874;DHT22;2451;49.970;9.068;2023-04-03T01:25:55;4.50;99.90
4874;DHT22;2451;49.970;9.068;2023-04-03T01:33:30;4.50;99.90
4874;DHT22;2451;49.970;9.068;2023-04-03T01:35:55;4.50;99.90
4874;DHT22;2451;49.970;9.068;2023-04-03T01:38:21;4.50;99.90
4874;DHT22;2451;49.970;9.068;2023-04-03T01:40:46;4.60;99.90
4874;DHT22;2451;49.970;9.068;2023-04-03T01:43:12;4.60;99.90
4874;DHT22;2451;49.970;9.068;2023-04-03T01:45:37;4.50;99.90
4874;DHT22;2451;49.970;9.068;2023-04-03T01:48:03;4.50;99.90
4874;DHT22;2451;49.970;9.068;2023-04-03T01:50:29;4.50;99.90
4874;DHT22;2451;49.970;9.068;2023-04-03T01:52:55;4.50;99.90
4874;DHT22;2451;49.970;9.068;2023-04-03T01:55:20;4.50;99.90
4874;DHT22;2451;49.970;9.068;2023-04-03T01:57:46;4.50;99.90
4874;DHT22;2451;49.970;9.068;2023-04-03T02:00:12;4.60;99.90
4874;DHT22;2451;49.970;9.068;2023-04-03T02:02:37;4.60;99.90
4874;DHT22;2451;49.970;9.068;2023-04-03T02:05:04;4.60;99.90
4874;DHT22;2451;49.970;9.068;2023-04-03T02:07:30;4.60;99.90
4874;DHT22;2451;49.970;9.068;2023-04-03T02:09:55;4.60;99.90
4874;DHT22;2451;49.970;9.068;2023-04-03T02:12:21;4.60;99.90
4874;DHT22;2451;49.970;9.068;2023-04-03T02:14:47;4.60;99.90
4874;DHT22;2451;49.970;9.068;2023-04-03T02:17:12;4.50;99.90
4874;DHT22;2451;49.970;9.068;2023-04-03T02:19:38;4.50;99.90
4874;DHT22;2451;49.970;9.068;2023-04-03T02:22:04;4.50;99.90
4874;DHT22;2451;49.970;9.068;2023-04-03T02:24:31;4.50;99.90
4874;DHT22;2451;49.970;9.068;2023-04-03T02:26:57;4.50;99.90
4874;DHT22;2451;49.970;9.068;2023-04-03T02:29:22;4.40;99.90
4874;DHT22;2451;49.970;9.068;2023-04-03T02:31:49;4.40;99.90
4874;DHT22;2451;49.970;9.068;2023-04-03T02:34:14;4.50;99.90
4874;DHT22;2451;49.970;9.068;2023-04-03T02:36:40;4.50;99.90
4874;DHT22;2451;49.970;9.068;2023-04-03T02:39:06;4.40;99.90
4874;DHT22;2451;49.970;9.068;2023-04-03T02:41:31;4.50;99.90
4874;DHT22;2451;49.970;9.068;2023-04-03T02:44:04;4.40;99.90
4874;DHT22;2451;49.970;9.068;2023-04-03T02:46:30;4.40;99.90
4874;DHT22;2451;49.970;9.068;2023-04-03T02:48:56;4.40;99.90
4874;DHT22;2451;49.970;9.068;2023-04-03T02:51:21;4.50;99.90
4874;DHT22;2451;49.970;9.068;2023-04-03T02:53:48;4.50;99.90
4874;DHT22;2451;49.970;9.068;2023-04-03T02:56:14;4.50;99.90
4874;DHT22;2451;49.970;9.068;2023-04-03T02:58:40;4.50;99.90
4874;DHT22;2451;49.970;9.068;2023-04-03T03:01:05;4.50;99.90
4874;DHT22;2451;49.970;9.068;2023-04-03T03:03:31;4.60;99.90
4874;DHT22;2451;49.970;9.068;2023-04-03T03:06:09;4.60;99.90
4874;DHT22;2451;49.970;9.068;2023-04-03T03:08:35;4.70;99.90
4874;DHT22;2451;49.970;9.068;2023-04-03T03:11:01;4.70;99.90
4874;DHT22;2451;49.970;9.068;2023-04-03T03:13:27;4.80;99.90
4874;DHT22;2451;49.970;9.068;2023-04-03T03:15:52;4.80;99.90
4874;DHT22;2451;49.970;9.068;2023-04-03T03:18:18;4.80;99.90
4874;DHT22;2451;49.970;9.068;2023-04-03T03:20:44;4.80;99.90
4874;DHT22;2451;49.970;9.068;2023-04-03T03:23:09;4.70;99.90
4874;DHT22;2451;49.970;9.068;2023-04-03T03:25:39;4.70;99.90
4874;DHT22;2451;49.970;9.068;2023-04-03T03:28:05;4.70;99.90
4874;DHT22;2451;49.970;9.068;2023-04-03T03:30:31;4.70;99.90
4874;DHT22;2451;49.970;9.068;2023-04-03T03:32:57;4.70;99.90
4874;DHT22;2451;49.970;9.068;2023-04-03T03:35:22;4.70;99.90
4874;DHT22;2451;49.970;9.068;2023-04-03T03:37:48;4.60;99.90
4874;DHT22;2451;49.970;9.068;2023-04-03T03:40:13;4.60;99.90
4874;DHT22;2451;49.970;9.068;2023-04-03T03:42:39;4.60;99.90
4874;DHT22;2451;49.970;9.068;2023-04-03T03:45:06;4.60;99.90
4874;DHT22;2451;49.970;9.068;2023-04-03T03:47:31;4.50;99.90
4874;DHT22;2451;49.970;9.068;2023-04-03T03:49:57;4.50;99.90
4874;DHT22;2451;49.970;9.068;2023-04-03T03:52:22;4.50;99.90
4874;DHT22;2451;49.970;9.068;2023-04-03T03:54:48;4.50;99.90
4874;DHT22;2451;49.970;9.068;2023-04-03T03:57:14;4.60;99.90
4874;DHT22;2451;49.970;9.068;2023-04-03T03:59:40;4.60;99.90
4874;DHT22;2451;49.970;9.068;2023-04-03T04:02:07;4.60;99.90
4874;DHT22;2451;49.970;9.068;2023-04-03T04:04:33;4.60;99.90
4874;DHT22;2451;49.970;9.068;2023-04-03T04:06:58;4.60;99.90
4874;DHT22;2451;49.970;9.068;2023-04-03T04:09:26;4.60;99.90
4874;DHT22;2451;49.970;9.068;2023-04-03T04:11:52;4.60;99.90
4874;DHT22;2451;49.970;9.068;2023-04-03T04:14:17;4.60;99.90
4874;DHT22;2451;49.970;9.068;2023-04-03T04:16:43;4.60;99.90
4874;DHT22;2451;49.970;9.068;2023-04-03T04:19:09;4.60;99.90
4874;DHT22;2451;49.970;9.068;2023-04-03T04:21:35;4.60;99.90
4874;DHT22;2451;49.970;9.068;2023-04-03T04:24:00;4.60;99.90
4874;DHT22;2451;49.970;9.068;2023-04-03T04:26:26;4.50;99.90
4874;DHT22;2451;49.970;9.068;2023-04-03T04:28:51;4.50;99.90
4874;DHT22;2451;49.970;9.068;2023-04-03T04:31:17;4.40;99.90
4874;DHT22;2451;49.970;9.068;2023-04-03T04:33:42;4.40;99.90
4874;DHT22;2451;49.970;9.068;2023-04-03T04:36:08;4.30;99.90
4874;DHT22;2451;49.970;9.068;2023-04-03T04:38:33;4.30;99.90
4874;DHT22;2451;49.970;9.068;2023-04-03T04:40:59;4.30;99.90
4874;DHT22;2451;49.970;9.068;2023-04-03T04:43:25;4.30;99.90
4874;DHT22;2451;49.970;9.068;2023-04-03T04:48:28;4.20;99.90
4874;DHT22;2451;49.970;9.068;2023-04-03T04:50:53;4.10;99.90
4874;DHT22;2451;49.970;9.068;2023-04-03T04:53:19;4.00;99.90
4874;DHT22;2451;49.970;9.068;2023-04-03T04:55:45;3.90;99.90
4874;DHT22;2451;49.970;9.068;2023-04-03T04:58:10;4.00;99.90
4874;DHT22;2451;49.970;9.068;2023-04-03T05:00:36;3.90;99.90
4874;DHT22;2451;49.970;9.068;2023-04-03T05:03:01;3.90;99.90
4874;DHT22;2451;49.970;9.068;2023-04-03T05:05:27;3.90;99.90
4874;DHT22;2451;49.970;9.068;2023-04-03T05:07:53;3.80;99.90
4874;DHT22;2451;49.970;9.068;2023-04-03T05:10:18;3.80;99.90
4874;DHT22;2451;49.970;9.068;2023-04-03T05:12:44;3.80;99.90
4874;DHT22;2451;49.970;9.068;2023-04-03T05:15:09;3.80;99.90
4874;DHT22;2451;49.970;9.068;2023-04-03T05:17:35;3.80;99.90
4874;DHT22;2451;49.970;9.068;2023-04-03T05:20:02;3.80;99.90
4874;DHT22;2451;49.970;9.068;2023-04-03T05:22:29;3.80;99.90
4874;DHT22;2451;49.970;9.068;2023-04-03T05:24:54;3.80;99.90
4874;DHT22;2451;49.970;9.068;2023-04-03T05:27:20;3.80;99.90
4874;DHT22;2451;49.970;9.068;2023-04-03T05:29:45;3.80;99.90
4874;DHT22;2451;49.970;9.068;2023-04-03T05:32:11;3.80;99.90
4874;DHT22;2451;49.970;9.068;2023-04-03T05:34:37;3.80;99.90
4874;DHT22;2451;49.970;9.068;2023-04-03T05:37:02;3.80;99.90
4874;DHT22;2451;49.970;9.068;2023-04-03T05:39:29;3.90;99.90
4874;DHT22;2451;49.970;9.068;2023-04-03T05:41:57;3.80;99.90
4874;DHT22;2451;49.970;9.068;2023-04-03T05:44:22;3.80;99.90
4874;DHT22;2451;49.970;9.068;2023-04-03T05:46:48;3.80;99.90
4874;DHT22;2451;49.970;9.068;2023-04-03T05:49:13;3.80;99.90
4874;DHT22;2451;49.970;9.068;2023-04-03T05:51:39;3.90;99.90
4874;DHT22;2451;49.970;9.068;2023-04-03T05:54:12;3.90;99.90
4874;DHT22;2451;49.970;9.068;2023-04-03T05:56:39;3.90;99.90
4874;DHT22;2451;49.970;9.068;2023-04-03T05:59:04;3.90;99.90
4874;DHT22;2451;49.970;9.068;2023-04-03T06:01:30;4.00;99.90
4874;DHT22;2451;49.970;9.068;2023-04-03T06:03:56;3.90;99.90
4874;DHT22;2451;49.970;9.068;2023-04-03T06:06:24;3.90;99.90
4874;DHT22;2451;49.970;9.068;2023-04-03T06:08:49;4.00;99.90
4874;DHT22;2451;49.970;9.068;2023-04-03T06:11:15;4.00;99.90
4874;DHT22;2451;49.970;9.068;2023-04-03T06:13:41;4.10;99.90
4874;DHT22;2451;49.970;9.068;2023-04-03T06:16:10;4.20;99.90
4874;DHT22;2451;49.970;9.068;2023-04-03T06:18:36;4.30;99.90
4874;DHT22;2451;49.970;9.068;2023-04-03T06:21:02;4.40;99.90
4874;DHT22;2451;49.970;9.068;2023-04-03T06:23:28;4.40;99.90
4874;DHT22;2451;49.970;9.068;2023-04-03T06:25:54;4.50;99.90
4874;DHT22;2451;49.970;9.068;2023-04-03T06:28:20;4.50;99.90
4874;DHT22;2451;49.970;9.068;2023-04-03T06:30:45;4.60;99.90
4874;DHT22;2451;49.970;9.068;2023-04-03T06:33:11;4.60;99.90
4874;DHT22;2451;49.970;9.068;2023-04-03T06:35:36;4.70;99.90
4874;DHT22;2451;49.970;9.068;2023-04-03T06:38:03;4.80;99.90
4874;DHT22;2451;49.970;9.068;2023-04-03T06:40:34;5.00;99.90
4874;DHT22;2451;49.970;9.068;2023-04-03T06:43:00;5.20;99.90
4874;DHT22;2451;49.970;9.068;2023-04-03T06:45:26;5.40;99.90
4874;DHT22;2451;49.970;9.068;2023-04-03T06:47:53;5.40;99.90
4874;DHT22;2451;49.970;9.068;2023-04-03T06:50:18;5.60;99.90
4874;DHT22;2451;49.970;9.068;2023-04-03T06:52:44;5.70;99.90
4874;DHT22;2451;49.970;9.068;2023-04-03T06:55:10;5.70;99.90
4874;DHT22;2451;49.970;9.068;2023-04-03T06:57:36;5.70;99.90
4874;DHT22;2451;49.970;9.068;2023-04-03T07:00:03;5.80;99.90
4874;DHT22;2451;49.970;9.068;2023-04-03T07:02:29;5.90;99.90
4874;DHT22;2451;49.970;9.068;2023-04-03T07:04:55;6.00;99.90
4874;DHT22;2451;49.970;9.068;2023-04-03T07:07:20;6.10;99.90
4874;DHT22;2451;49.970;9.068;2023-04-03T07:09:46;6.20;99.90
4874;DHT22;2451;49.970;9.068;2023-04-03T07:12:13;6.20;99.90
4874;DHT22;2451;49.970;9.068;2023-04-03T07:14:39;6.30;99.90
4874;DHT22;2451;49.970;9.068;2023-04-03T07:17:05;6.40;99.90
4874;DHT22;2451;49.970;9.068;2023-04-03T07:19:30;6.50;99.90
4874;DHT22;2451;49.970;9.068;2023-04-03T07:21:56;6.70;99.90
4874;DHT22;2451;49.970;9.068;2023-04-03T07:24:22;6.80;99.90
4874;DHT22;2451;49.970;9.068;2023-04-03T07:26:52;6.90;99.90
4874;DHT22;2451;49.970;9.068;2023-04-03T07:29:18;7.00;99.90
4874;DHT22;2451;49.970;9.068;2023-04-03T07:31:43;7.20;99.90
4874;DHT22;2451;49.970;9.068;2023-04-03T07:34:10;7.40;99.90
4874;DHT22;2451;49.970;9.068;2023-04-03T07:36:36;7.60;99.90
4874;DHT22;2451;49.970;9.068;2023-04-03T07:39:02;7.60;99.90
4874;DHT22;2451;49.970;9.068;2023-04-03T07:41:28;7.60;99.90
4874;DHT22;2451;49.970;9.068;2023-04-03T07:43:54;7.80;99.90
4874;DHT22;2451;49.970;9.068;2023-04-03T07:46:21;8.00;99.90
4874;DHT22;2451;49.970;9.068;2023-04-03T07:48:47;7.90;99.90
4874;DHT22;2451;49.970;9.068;2023-04-03T07:51:13;7.90;99.90
4874;DHT22;2451;49.970;9.068;2023-04-03T07:53:38;7.90;99.90
4874;DHT22;2451;49.970;9.068;2023-04-03T07:56:05;8.00;99.90
4874;DHT22;2451;49.970;9.068;2023-04-03T07:58:30;8.20;99.90
4874;DHT22;2451;49.970;9.068;2023-04-03T08:00:56;8.20;99.90
4874;DHT22;2451;49.970;9.068;2023-04-03T08:03:22;8.30;99.90
4874;DHT22;2451;49.970;9.068;2023-04-03T08:05:49;8.40;99.90
4874;DHT22;2451;49.970;9.068;2023-04-03T08:08:18;8.50;99.90
4874;DHT22;2451;49.970;9.068;2023-04-03T08:10:43;8.70;99.90
4874;DHT22;2451;49.970;9.068;2023-04-03T08:13:12;9.00;99.90
4874;DHT22;2451;49.970;9.068;2023-04-03T08:15:38;9.20;99.90
4874;DHT22;2451;49.970;9.068;2023-04-03T08:18:04;9.30;99.60
4874;DHT22;2451;49.970;9.068;2023-04-03T08:20:30;9.00;98.50
4874;DHT22;2451;49.970;9.068;2023-04-03T08:22:55;8.70;96.70
4874;DHT22;2451;49.970;9.068;2023-04-03T08:25:21;8.80;97.70
4874;DHT22;2451;49.970;9.068;2023-04-03T08:27:47;9.00;97.80
4874;DHT22;2451;49.970;9.068;2023-04-03T08:30:13;9.20;97.40
4874;DHT22;2451;49.970;9.068;2023-04-03T08:32:39;9.00;95.70
4874;DHT22;2451;49.970;9.068;2023-04-03T08:35:07;8.70;97.00
4874;DHT22;2451;49.970;9.068;2023-04-03T08:37:35;8.40;97.70
4874;DHT22;2451;49.970;9.068;2023-04-03T08:40:02;8.00;96.70
4874;DHT22;2451;49.970;9.068;2023-04-03T08:48:31;7.50;98.80
4874;DHT22;2451;49.970;9.068;2023-04-03T08:51:03;7.60;97.90
4874;DHT22;2451;49.970;9.068;2023-04-03T08:53:33;7.60;98.70
4874;DHT22;2451;49.970;9.068;2023-04-03T08:56:06;7.60;98.40
4874;DHT22;2451;49.970;9.068;2023-04-03T08:58:58;7.70;98.30
4874;DHT22;2451;49.970;9.068;2023-04-03T09:01:33;7.80;98.60
4874;DHT22;2451;49.970;9.068;2023-04-03T09:04:01;7.70;99.80
4874;DHT22;2451;49.970;9.068;2023-04-03T09:06:31;7.70;99.90
4874;DHT22;2451;49.970;9.068;2023-04-03T09:09:21;8.00;99.90
4874;DHT22;2451;49.970;9.068;2023-04-03T09:12:05;8.40;99.90
4874;DHT22;2451;49.970;9.068;2023-04-03T09:14:39;8.40;98.70
4874;DHT22;2451;49.970;9.068;2023-04-03T09:17:31;8.20;98.00
4874;DHT22;2451;49.970;9.068;2023-04-03T09:22:33;8.10;98.00
4874;DHT22;2451;49.970;9.068;2023-04-03T09:25:33;7.90;97.20
4874;DHT22;2451;49.970;9.068;2023-04-03T09:28:00;7.90;97.50
4874;DHT22;2451;49.970;9.068;2023-04-03T09:30:28;7.90;97.80
4874;DHT22;2451;49.970;9.068;2023-04-03T09:32:56;7.90;97.90
4874;DHT22;2451;49.970;9.068;2023-04-03T09:35:26;7.90;98.10
4874;DHT22;2451;49.970;9.068;2023-04-03T09:38:14;7.90;98.90
4874;DHT22;2451;49.970;9.068;2023-04-03T09:40:42;8.00;98.20
4874;DHT22;2451;49.970;9.068;2023-04-03T09:43:32;8.20;98.20
4874;DHT22;2451;49.970;9.068;2023-04-03T09:46:51;8.20;96.80
4874;DHT22;2451;49.970;9.068;2023-04-03T09:49:11;8.20;96.20
4874;DHT22;2451;49.970;9.068;2023-04-03T09:51:37;8.20;97.10
4874;DHT22;2451;49.970;9.068;2023-04-03T09:56:51;8.60;96.60
4874;DHT22;2451;49.970;9.068;2023-04-03T09:59:19;9.20;97.20
4874;DHT22;2451;49.970;9.068;2023-04-03T10:02:20;9.70;95.40
4874;DHT22;2451;49.970;9.068;2023-04-03T10:04:46;10.60;95.80
4874;DHT22;2451;49.970;9.068;2023-04-03T10:07:34;11.40;93.00
4874;DHT22;2451;49.970;9.068;2023-04-03T10:10:17;11.70;84.90
4874;DHT22;2451;49.970;9.068;2023-04-03T10:12:43;10.30;78.40
4874;DHT22;2451;49.970;9.068;2023-04-03T10:15:14;9.90;84.60
4874;DHT22;2451;49.970;9.068;2023-04-03T10:17:57;10.00;86.40
4874;DHT22;2451;49.970;9.068;2023-04-03T10:20:47;10.50;85.60
4874;DHT22;2451;49.970;9.068;2023-04-03T10:23:32;11.10;87.40
4874;DHT22;2451;49.970;9.068;2023-04-03T10:28:55;10.90;74.70
4874;DHT22;2451;49.970;9.068;2023-04-03T10:31:33;10.90;73.30
4874;DHT22;2451;49.970;9.068;2023-04-03T10:34:05;11.10;76.90
4874;DHT22;2451;49.970;9.068;2023-04-03T10:37:01;11.00;75.60
4874;DHT22;2451;49.970;9.068;2023-04-03T10:40:22;10.80;76.10
4874;DHT22;2451;49.970;9.068;2023-04-03T10:45:19;10.00;78.00
4874;DHT22;2451;49.970;9.068;2023-04-03T10:48:09;9.90;76.30
4874;DHT22;2451;49.970;9.068;2023-04-03T10:50:56;10.60;76.10
4874;DHT22;2451;49.970;9.068;2023-04-03T10:53:39;11.10;76.20
4874;DHT22;2451;49.970;9.068;2023-04-03T10:58:48;11.70;72.50
4874;DHT22;2451;49.970;9.068;2023-04-03T11:01:22;11.30;74.50
4874;DHT22;2451;49.970;9.068;2023-04-03T11:03:55;11.30;77.00
4874;DHT22;2451;49.970;9.068;2023-04-03T11:06:25;11.70;75.70
4874;DHT22;2451;49.970;9.068;2023-04-03T11:09:00;11.50;73.70
4874;DHT22;2451;49.970;9.068;2023-04-03T11:11:34;11.20;73.30
4874;DHT22;2451;49.970;9.068;2023-04-03T11:14:09;11.50;73.30
4874;DHT22;2451;49.970;9.068;2023-04-03T11:16:41;12.00;73.50
4874;DHT22;2451;49.970;9.068;2023-04-03T11:19:16;12.20;69.50
4874;DHT22;2451;49.970;9.068;2023-04-03T11:24:25;12.50;67.50
4874;DHT22;2451;49.970;9.068;2023-04-03T11:26:54;12.80;63.80
4874;DHT22;2451;49.970;9.068;2023-04-03T11:29:23;12.90;61.80
4874;DHT22;2451;49.970;9.068;2023-04-03T11:32:09;13.10;60.50
4874;DHT22;2451;49.970;9.068;2023-04-03T11:34:42;13.00;58.20
4874;DHT22;2451;49.970;9.068;2023-04-03T11:37:41;12.80;55.40
4874;DHT22;2451;49.970;9.068;2023-04-03T11:50:46;12.30;56.80
4874;DHT22;2451;49.970;9.068;2023-04-03T11:58:17;13.10;55.50
4874;DHT22;2451;49.970;9.068;2023-04-03T12:03:31;13.30;54.80
4874;DHT22;2451;49.970;9.068;2023-04-03T12:16:27;12.50;53.40
4874;DHT22;2451;49.970;9.068;2023-04-03T12:18:54;12.30;53.20
4874;DHT22;2451;49.970;9.068;2023-04-03T12:29:23;12.40;51.60
4874;DHT22;2451;49.970;9.068;2023-04-03T12:38:11;12.70;54.10
4874;DHT22;2451;49.970;9.068;2023-04-03T12:43:36;12.80;55.20
4874;DHT22;2451;49.970;9.068;2023-04-03T12:48:55;12.90;53.50
4874;DHT22;2451;49.970;9.068;2023-04-03T12:51:40;12.60;53.00
4874;DHT22;2451;49.970;9.068;2023-04-03T12:54:23;12.80;54.40
4874;DHT22;2451;49.970;9.068;2023-04-03T12:57:30;13.20;53.00
4874;DHT22;2451;49.970;9.068;2023-04-03T12:59:58;13.10;54.60
4874;DHT22;2451;49.970;9.068;2023-04-03T13:02:29;13.40;52.40
4874;DHT22;2451;49.970;9.068;2023-04-03T13:04:58;13.70;53.20
4874;DHT22;2451;49.970;9.068;2023-04-03T13:07:28;14.10;55.70
4874;DHT22;2451;49.970;9.068;2023-04-03T13:12:33;14.20;49.40
4874;DHT22;2451;49.970;9.068;2023-04-03T13:15:12;13.40;50.80
4874;DHT22;2451;49.970;9.068;2023-04-03T13:17:42;13.10;54.50
4874;DHT22;2451;49.970;9.068;2023-04-03T13:20:27;13.50;53.70
4874;DHT22;2451;49.970;9.068;2023-04-03T13:23:08;13.90;54.70
4874;DHT22;2451;49.970;9.068;2023-04-03T13:25:40;14.20;54.30
4874;DHT22;2451;49.970;9.068;2023-04-03T13:28:09;14.20;54.10
4874;DHT22;2451;49.970;9.068;2023-04-03T13:30:38;13.90;53.00
4874;DHT22;2451;49.970;9.068;2023-04-03T13:33:20;13.70;52.60
4874;DHT22;2451;49.970;9.068;2023-04-03T13:35:47;13.20;52.60
4874;DHT22;2451;49.970;9.068;2023-04-03T13:40:55;13.60;52.50
4874;DHT22;2451;49.970;9.068;2023-04-03T13:43:25;13.30;52.10
4874;DHT22;2451;49.970;9.068;2023-04-03T13:45:59;13.00;51.70
4874;DHT22;2451;49.970;9.068;2023-04-03T13:48:26;13.00;52.70
4874;DHT22;2451;49.970;9.068;2023-04-03T13:51:02;13.20;53.20
4874;DHT22;2451;49.970;9.068;2023-04-03T13:53:30;13.30;50.20
4874;DHT22;2451;49.970;9.068;2023-04-03T13:58:30;13.20;50.60
4874;DHT22;2451;49.970;9.068;2023-04-03T14:03:55;13.50;53.50
4874;DHT22;2451;49.970;9.068;2023-04-03T14:06:24;13.60;51.30
4874;DHT22;2451;49.970;9.068;2023-04-03T14:08:51;13.80;50.90
4874;DHT22;2451;49.970;9.068;2023-04-03T14:11:22;13.60;50.80
4874;DHT22;2451;49.970;9.068;2023-04-03T14:13:50;13.20;50.40
4874;DHT22;2451;49.970;9.068;2023-04-03T14:16:19;13.10;50.70
4874;DHT22;2451;49.970;9.068;2023-04-03T14:18:48;13.30;51.60
4874;DHT22;2451;49.970;9.068;2023-04-03T14:21:15;13.20;51.20
4874;DHT22;2451;49.970;9.068;2023-04-03T14:23:41;13.30;51.60
4874;DHT22;2451;49.970;9.068;2023-04-03T14:26:25;13.10;50.40
4874;DHT22;2451;49.970;9.068;2023-04-03T14:28:54;13.10;49.60
4874;DHT22;2451;49.970;9.068;2023-04-03T14:31:21;12.90;49.90
4874;DHT22;2451;49.970;9.068;2023-04-03T14:33:48;13.00;50.70
4874;DHT22;2451;49.970;9.068;2023-04-03T14:36:21;13.00;50.20
4874;DHT22;2451;49.970;9.068;2023-04-03T14:38:47;12.90;48.90
4874;DHT22;2451;49.970;9.068;2023-04-03T14:41:16;12.30;49.20
4874;DHT22;2451;49.970;9.068;2023-04-03T14:43:43;11.80;48.60
4874;DHT22;2451;49.970;9.068;2023-04-03T14:46:13;11.70;50.40
4874;DHT22;2451;49.970;9.068;2023-04-03T14:48:40;11.70;50.80
4874;DHT22;2451;49.970;9.068;2023-04-03T14:51:06;11.70;50.20
4874;DHT22;2451;49.970;9.068;2023-04-03T14:53:32;11.70;51.80
4874;DHT22;2451;49.970;9.068;2023-04-03T14:55:58;11.80;51.30
4874;DHT22;2451;49.970;9.068;2023-04-03T14:58:23;11.80;51.00
4874;DHT22;2451;49.970;9.068;2023-04-03T15:00:49;11.90;50.60
4874;DHT22;2451;49.970;9.068;2023-04-03T15:03:17;12.00;50.50
4874;DHT22;2451;49.970;9.068;2023-04-03T15:05:44;12.00;50.60
4874;DHT22;2451;49.970;9.068;2023-04-03T15:10:44;11.60;49.90
4874;DHT22;2451;49.970;9.068;2023-04-03T15:13:12;11.70;50.30
4874;DHT22;2451;49.970;9.068;2023-04-03T15:15:39;11.70;49.10
4874;DHT22;2451;49.970;9.068;2023-04-03T15:18:05;12.00;49.60
4874;DHT22;2451;49.970;9.068;2023-04-03T15:20:31;12.00;49.20
4874;DHT22;2451;49.970;9.068;2023-04-03T15:22:59;12.10;49.10
4874;DHT22;2451;49.970;9.068;2023-04-03T15:25:29;12.10;49.90
4874;DHT22;2451;49.970;9.068;2023-04-03T15:27:56;12.10;49.90
4874;DHT22;2451;49.970;9.068;2023-04-03T15:30:22;12.20;50.50
4874;DHT22;2451;49.970;9.068;2023-04-03T15:32:48;12.10;50.50
4874;DHT22;2451;49.970;9.068;2023-04-03T15:35:14;12.10;50.50
4874;DHT22;2451;49.970;9.068;2023-04-03T15:37:40;12.10;50.60
4874;DHT22;2451;49.970;9.068;2023-04-03T15:40:07;12.10;51.20
4874;DHT22;2451;49.970;9.068;2023-04-03T15:42:33;12.10;51.00
4874;DHT22;2451;49.970;9.068;2023-04-03T15:44:58;12.30;51.40
4874;DHT22;2451;49.970;9.068;2023-04-03T15:47:25;12.20;50.70
4874;DHT22;2451;49.970;9.068;2023-04-03T15:49:52;12.00;50.30
4874;DHT22;2451;49.970;9.068;2023-04-03T15:52:18;11.70;50.40
4874;DHT22;2451;49.970;9.068;2023-04-03T15:54:44;11.20;51.00
4874;DHT22;2451;49.970;9.068;2023-04-03T15:57:09;10.90;51.00
4874;DHT22;2451;49.970;9.068;2023-04-03T15:59:35;10.60;51.20
4874;DHT22;2451;49.970;9.068;2023-04-03T16:02:01;10.40;52.10
4874;DHT22;2451;49.970;9.068;2023-04-03T16:04:29;10.30;52.70
4874;DHT22;2451;49.970;9.068;2023-04-03T16:06:55;10.20;52.00
4874;DHT22;2451;49.970;9.068;2023-04-03T16:09:21;10.20;50.10
4874;DHT22;2451;49.970;9.068;2023-04-03T16:11:46;10.00;50.90
4874;DHT22;2451;49.970;9.068;2023-04-03T16:14:12;9.80;50.80
4874;DHT22;2451;49.970;9.068;2023-04-03T16:16:38;9.80;51.80
4874;DHT22;2451;49.970;9.068;2023-04-03T16:19:04;9.90;52.20
4874;DHT22;2451;49.970;9.068;2023-04-03T16:21:31;9.80;52.50
4874;DHT22;2451;49.970;9.068;2023-04-03T16:23:58;9.80;53.50
4874;DHT22;2451;49.970;9.068;2023-04-03T16:26:24;9.80;53.00
4874;DHT22;2451;49.970;9.068;2023-04-03T16:28:50;9.80;51.90
4874;DHT22;2451;49.970;9.068;2023-04-03T16:31:16;9.70;52.50
4874;DHT22;2451;49.970;9.068;2023-04-03T16:33:42;9.60;52.60
4874;DHT22;2451;49.970;9.068;2023-04-03T16:36:07;9.60;53.20
4874;DHT22;2451;49.970;9.068;2023-04-03T16:38:33;9.60;53.70
4874;DHT22;2451;49.970;9.068;2023-04-03T16:40:58;9.50;53.60
4874;DHT22;2451;49.970;9.068;2023-04-03T16:43:26;9.60;53.70
4874;DHT22;2451;49.970;9.068;2023-04-03T16:45:51;9.50;54.60
4874;DHT22;2451;49.970;9.068;2023-04-03T16:48:17;9.40;54.90
4874;DHT22;2451;49.970;9.068;2023-04-03T16:50:46;9.40;54.20
4874;DHT22;2451;49.970;9.068;2023-04-03T16:53:13;9.30;54.20
4874;DHT22;2451;49.970;9.068;2023-04-03T16:55:38;9.20;54.60
4874;DHT22;2451;49.970;9.068;2023-04-03T16:58:05;9.10;54.80
4874;DHT22;2451;49.970;9.068;2023-04-03T17:00:31;9.00;55.00
4874;DHT22;2451;49.970;9.068;2023-04-03T17:02:57;8.90;55.40
4874;DHT22;2451;49.970;9.068;2023-04-03T17:05:24;8.90;55.20
4874;DHT22;2451;49.970;9.068;2023-04-03T17:07:50;8.80;55.50
4874;DHT22;2451;49.970;9.068;2023-04-03T17:10:16;8.70;56.30
4874;DHT22;2451;49.970;9.068;2023-04-03T17:12:41;8.60;56.60
4874;DHT22;2451;49.970;9.068;2023-04-03T17:15:07;8.50;56.90
4874;DHT22;2451;49.970;9.068;2023-04-03T17:17:33;8.40;57.50
4874;DHT22;2451;49.970;9.068;2023-04-03T17:19:59;8.30;57.10
4874;DHT22;2451;49.970;9.068;2023-04-03T17:22:25;8.20;57.50
4874;DHT22;2451;49.970;9.068;2023-04-03T17:24:52;8.10;57.80
4874;DHT22;2451;49.970;9.068;2023-04-03T17:27:19;8.10;57.50
4874;DHT22;2451;49.970;9.068;2023-04-03T17:29:44;7.90;57.60
4874;DHT22;2451;49.970;9.068;2023-04-03T17:32:10;7.80;57.90
4874;DHT22;2451;49.970;9.068;2023-04-03T17:34:35;7.80;58.50
4874;DHT22;2451;49.970;9.068;2023-04-03T17:37:02;7.60;58.10
4874;DHT22;2451;49.970;9.068;2023-04-03T17:39:29;7.50;58.80
4874;DHT22;2451;49.970;9.068;2023-04-03T17:41:54;7.40;59.30
4874;DHT22;2451;49.970;9.068;2023-04-03T17:44:20;7.40;60.10
4874;DHT22;2451;49.970;9.068;2023-04-03T17:46:46;7.30;60.90
4874;DHT22;2451;49.970;9.068;2023-04-03T17:49:11;7.20;61.90
4874;DHT22;2451;49.970;9.068;2023-04-03T17:51:40;7.20;60.30
4874;DHT22;2451;49.970;9.068;2023-04-03T17:54:06;7.10;61.00
4874;DHT22;2451;49.970;9.068;2023-04-03T17:56:32;7.00;60.10
4874;DHT22;2451;49.970;9.068;2023-04-03T17:58:58;7.00;60.30
4874;DHT22;2451;49.970;9.068;2023-04-03T18:01:28;6.90;61.20